Dallas, Texas
Current Conditions -  °F | °C
As of 6:53 PM on Sunday 23 Nov 2014 (Local Time) from KDAL Reporting Station
Clear Clear  
Wind Chill: 61°   Ceiling: Unl
Heat Index: 61°   Visibility: 10mi
Dew Point: 42°   Wind: 25mph
Humidity: 50%   Direction: 310°NW
Pressure: 29.6"   Gusts: 41mph
Location:  32.78°N, 96.79°W
Report Text: KDAL 240053Z 31022G36KT 10SM CLR 16/06 A2960 RMK AO2 PK WND 32036/0046 PRESRR SLP020 T01610056
Loading
Personal Weather Stations






























Interactive Weather Map New forecast layout! Learn more

10-Day Weather Forecast

Advertisements
Track Severe Weather on mobile